Time;durP1;ratioP1;P1;durP2;ratioP2;P2;SDS_P1;SDS_P2;PMS_P1;PMS_P2;Temp;Humidity;BMP_temperature;BMP_pressure;BME280_temperature;BME280_humidity;BME280_pressure;Samples;Min_cycle;Max_cycle;Signal;HPM_P1;HPM_P2
2021/12/23 00:00:17;;;;;;;33.50;15.13;;;;;;;-3.82;79.38;95600.09;5091064;28;20249;-82
2021/12/23 00:02:45;;;;;;;37.57;14.70;;;;;;;-3.95;80.27;95617.09;5106162;28;20193;-80
2021/12/23 00:05:13;;;;;;;29.27;14.10;;;;;;;-4.20;81.60;95612.09;5093472;28;20670;-83
2021/12/23 00:07:43;;;;;;;30.23;13.33;;;;;;;-4.16;82.48;95605.91;5097795;28;20710;-82
2021/12/23 00:10:12;;;;;;;22.43;10.40;;;;;;;-3.93;81.59;95614.47;5094222;28;20200;-83
2021/12/23 00:12:42;;;;;;;19.47;9.97;;;;;;;-3.78;80.22;95618.47;5103348;28;20227;-83
2021/12/23 00:15:23;;;;;;;18.33;9.13;;;;;;;-3.64;79.04;95613.25;5094416;28;20210;-82
2021/12/23 00:17:57;;;;;;;15.67;9.30;;;;;;;-3.55;78.11;95605.75;5089600;28;20188;-82
2021/12/23 00:23:27;;;;;;;18.27;9.47;;;;;;;-3.38;76.21;95604.59;5098618;28;20201;-83
2021/12/23 00:26:00;;;;;;;16.77;9.10;;;;;;;-3.32;76.26;95611.75;5105122;28;20323;-83
2021/12/23 00:28:28;;;;;;;18.93;9.10;;;;;;;-3.25;75.67;95617.19;5102751;27;20220;-83
2021/12/23 00:30:59;;;;;;;19.60;10.17;;;;;;;-3.15;74.85;95615.63;5100189;28;20242;-79
2021/12/23 00:33:27;;;;;;;21.10;9.50;;;;;;;-3.15;73.71;95611.34;5094255;28;20694;-84
2021/12/23 00:35:56;;;;;;;16.30;9.33;;;;;;;-3.06;72.92;95625.13;5104712;28;20287;-83
2021/12/23 00:38:31;;;;;;;17.80;9.43;;;;;;;-3.11;71.94;95625.44;5102876;28;20231;-82
2021/12/23 00:41:01;;;;;;;21.53;10.93;;;;;;;-3.48;72.71;95616.31;5100005;28;20228;-82
2021/12/23 00:43:31;;;;;;;22.23;11.53;;;;;;;-3.78;73.69;95619.25;5104055;28;20302;-85
2021/12/23 00:46:00;;;;;;;26.67;11.40;;;;;;;-3.94;75.33;95602.69;5089734;28;20197;-84
2021/12/23 00:48:29;;;;;;;27.50;13.03;;;;;;;-3.91;76.44;95588.06;5102387;28;20236;-84
2021/12/23 00:50:57;;;;;;;32.30;13.50;;;;;;;-3.63;75.98;95620.72;5094484;28;20208;-83
2021/12/23 00:53:27;;;;;;;32.20;14.67;;;;;;;-3.58;74.46;95615.34;5106695;28;20196;-83
2021/12/23 00:55:57;;;;;;;30.33;14.63;;;;;;;-3.52;73.73;95597.13;5100810;28;20253;-85
2021/12/23 00:58:26;;;;;;;26.03;12.97;;;;;;;-3.34;73.76;95600.06;5108744;28;20212;-84
2021/12/23 01:00:57;;;;;;;29.17;13.43;;;;;;;-3.24;73.75;95601.84;5098105;28;20203;-83
2021/12/23 01:03:25;;;;;;;24.07;11.73;;;;;;;-3.22;73.17;95589.84;5093820;28;20731;-84
2021/12/23 01:05:55;;;;;;;23.37;11.87;;;;;;;-3.17;72.14;95597.13;5086408;28;20283;-82
2021/12/23 01:08:23;;;;;;;24.03;11.23;;;;;;;-3.38;72.78;95581.72;5095608;28;20279;-83
2021/12/23 01:10:56;;;;;;;19.47;10.70;;;;;;;-3.46;72.89;95572.09;5088092;28;20291;-82
2021/12/23 01:13:28;;;;;;;21.83;11.27;;;;;;;-3.22;72.62;95597.47;5100264;28;20192;-82
2021/12/23 01:16:03;;;;;;;29.03;12.23;;;;;;;-3.16;72.04;95596.19;5097946;28;20196;-82
2021/12/23 01:18:37;;;;;;;22.63;11.93;;;;;;;-3.16;71.21;95588.56;5111456;28;20678;-82
2021/12/23 01:21:15;;;;;;;24.50;12.00;;;;;;;-3.22;71.43;95587.28;5107757;28;20591;-83
2021/12/23 01:23:47;;;;;;;23.30;12.00;;;;;;;-3.21;71.33;95590.66;5104773;28;20238;-82
2021/12/23 01:26:21;;;;;;;27.23;12.80;;;;;;;-3.16;71.84;95593.66;5109730;28;20300;-83
2021/12/23 01:28:52;;;;;;;28.30;13.27;;;;;;;-3.21;71.54;95583.03;5103379;28;20234;-83
2021/12/23 01:31:24;;;;;;;22.80;12.27;;;;;;;-3.24;71.73;95573.09;5098580;28;20735;-83
2021/12/23 01:33:51;;;;;;;29.77;12.90;;;;;;;-3.20;71.55;95587.19;5095102;28;20303;-84
2021/12/23 01:36:19;;;;;;;26.33;12.73;;;;;;;-3.35;72.05;95576.41;5106452;28;20204;-82
2021/12/23 01:38:47;;;;;;;25.33;10.67;;;;;;;-3.35;71.69;95578.97;5099321;28;20259;-84
2021/12/23 01:41:18;;;;;;;20.27;10.17;;;;;;;-3.53;72.04;95582.81;5105824;28;20340;-84
2021/12/23 01:43:46;;;;;;;19.30;9.87;;;;;;;-3.90;74.11;95574.47;5094697;28;20200;-84
2021/12/23 01:46:14;;;;;;;18.70;10.27;;;;;;;-4.27;76.00;95570.31;5099687;28;20192;-85
2021/12/23 01:48:42;;;;;;;23.77;11.20;;;;;;;-4.25;78.59;95568.47;5097811;28;20221;-84
2021/12/23 01:51:10;;;;;;;25.70;13.57;;;;;;;-4.16;77.50;95562.78;5092353;28;20817;-84
2021/12/23 01:53:39;;;;;;;31.93;15.23;;;;;;;-4.03;76.85;95568.59;5099597;28;20212;-84
2021/12/23 01:56:06;;;;;;;39.77;17.70;;;;;;;-3.97;76.80;95568.19;5099822;28;20196;-83
2021/12/23 01:58:39;;;;;;;26.63;14.70;;;;;;;-3.82;75.92;95576.44;5101305;28;20246;-81
2021/12/23 02:01:07;;;;;;;18.80;11.50;;;;;;;-3.70;74.76;95578.13;5108587;28;20204;-83
2021/12/23 02:03:38;;;;;;;20.30;10.00;;;;;;;-3.66;74.51;95570.16;5093837;28;20210;-84
2021/12/23 02:06:07;;;;;;;18.43;8.80;;;;;;;-3.59;74.21;95571.34;5100416;28;20283;-83
2021/12/23 02:08:36;;;;;;;17.90;8.90;;;;;;;-3.54;74.06;95583.72;5095429;28;20216;-82
2021/12/23 02:11:07;;;;;;;16.30;8.30;;;;;;;-3.51;74.04;95580.97;5108952;28;20272;-83
2021/12/23 02:13:37;;;;;;;17.37;8.77;;;;;;;-3.52;73.99;95592.06;5101137;28;20200;-83
2021/12/23 02:16:06;;;;;;;17.87;9.27;;;;;;;-3.49;73.10;95590.09;5103500;28;20206;-84
2021/12/23 02:18:35;;;;;;;21.17;10.73;;;;;;;-3.47;73.65;95597.63;5107798;28;20287;-83
2021/12/23 02:21:05;;;;;;;21.10;10.73;;;;;;;-3.47;73.91;95597.63;5103062;28;20322;-83
2021/12/23 02:23:34;;;;;;;23.53;12.23;;;;;;;-3.52;74.09;95592.84;5099966;28;20205;-85
2021/12/23 02:26:02;;;;;;;26.53;13.50;;;;;;;-3.58;74.35;95588.19;5101213;28;20240;-85
2021/12/23 02:28:30;;;;;;;28.60;14.33;;;;;;;-3.50;74.50;95595.28;5099683;28;20224;-83
2021/12/23 02:30:59;;;;;;;28.53;13.17;;;;;;;-3.54;74.94;95597.22;5103637;28;20283;-85
2021/12/23 02:33:29;;;;;;;31.53;14.63;;;;;;;-3.67;74.73;95578.72;5090082;28;20205;-84
2021/12/23 02:35:59;;;;;;;29.23;14.43;;;;;;;-3.67;75.34;95588.88;5092281;28;20197;-83
2021/12/23 02:38:29;;;;;;;30.20;15.10;;;;;;;-3.72;75.84;95587.59;5099170;28;20286;-84
2021/12/23 02:47:51;;;;;;;34.23;14.40;;;;;;;-4.56;80.37;95584.16;5082188;28;20763;-85
2021/12/23 02:50:19;;;;;;;34.53;14.73;;;;;;;-5.02;84.39;95578.84;5101793;28;20207;-83
2021/12/23 02:52:48;;;;;;;31.60;14.80;;;;;;;-5.08;86.50;95572.44;5093580;28;20200;-83
2021/12/23 02:55:19;;;;;;;27.13;13.80;;;;;;;-5.03;87.08;95572.94;5097012;28;20204;-85
2021/12/23 02:57:47;;;;;;;32.17;14.37;;;;;;;-4.92;87.54;95583.19;5104937;28;20211;-85
2021/12/23 03:00:15;;;;;;;29.00;14.43;;;;;;;-4.80;87.46;95573.94;5105196;28;20877;-84
2021/12/23 03:02:43;;;;;;;33.17;14.80;;;;;;;-4.63;84.64;95569.38;5097165;28;20219;-85
2021/12/23 03:05:13;;;;;;;30.73;14.80;;;;;;;-4.60;83.64;95553.13;5089770;28;20197;-85
2021/12/23 03:07:40;;;;;;;31.33;14.87;;;;;;;-4.66;83.90;95549.31;5098586;28;20575;-85
2021/12/23 03:10:10;;;;;;;29.03;14.47;;;;;;;-4.36;83.07;95578.56;5092092;28;20632;-85
2021/12/23 03:12:40;;;;;;;29.67;14.00;;;;;;;-4.29;81.74;95564.53;5092381;28;20222;-86
2021/12/23 03:15:09;;;;;;;29.93;14.50;;;;;;;-4.40;81.61;95537.38;5106672;28;20203;-86
2021/12/23 03:17:37;;;;;;;31.57;14.73;;;;;;;-4.30;81.00;95550.25;5096368;28;20196;-86
2021/12/23 03:20:07;;;;;;;33.60;15.33;;;;;;;-4.20;80.89;95559.63;5101498;28;20200;-85
2021/12/23 03:22:35;;;;;;;30.37;14.40;;;;;;;-4.22;81.14;95560.66;5094283;28;20207;-83
2021/12/23 03:25:03;;;;;;;30.87;15.07;;;;;;;-4.25;81.25;95559.16;5102321;28;20265;-83
2021/12/23 03:27:32;;;;;;;32.83;14.90;;;;;;;-4.28;81.85;95563.63;5105261;28;20216;-84
2021/12/23 03:30:01;;;;;;;31.40;14.97;;;;;;;-4.33;81.99;95565.66;5091414;28;20300;-84
2021/12/23 03:32:29;;;;;;;32.80;15.63;;;;;;;-4.40;82.52;95556.84;5098417;28;20192;-85
2021/12/23 03:34:58;;;;;;;32.67;15.73;;;;;;;-4.34;81.46;95557.25;5103459;28;20686;-84
2021/12/23 03:37:26;;;;;;;33.43;15.83;;;;;;;-4.31;81.46;95567.19;5097661;28;20192;-84
2021/12/23 03:39:54;;;;;;;33.40;15.60;;;;;;;-4.35;81.70;95567.47;5102177;28;20588;-81
2021/12/23 03:42:22;;;;;;;31.93;15.77;;;;;;;-4.38;81.81;95567.69;5099679;28;20204;-81
2021/12/23 03:44:51;;;;;;;29.77;15.37;;;;;;;-4.32;81.92;95565.53;5092584;28;20201;-81
2021/12/23 03:47:19;;;;;;;35.47;16.57;;;;;;;-4.75;82.63;95549.09;5097393;28;20245;-80
2021/12/23 03:49:48;;;;;;;34.53;16.93;;;;;;;-5.02;85.43;95573.75;5099015;28;20208;-81
2021/12/23 03:52:16;;;;;;;43.67;20.33;;;;;;;-5.36;87.71;95559.94;5104726;28;20203;-80
2021/12/23 03:54:44;;;;;;;40.70;20.73;;;;;;;-5.50;92.09;95570.97;5095904;28;20261;-79
2021/12/23 03:57:12;;;;;;;40.13;19.87;;;;;;;-5.49;91.92;95559.94;5098943;28;20200;-80
2021/12/23 03:59:40;;;;;;;43.37;20.07;;;;;;;-5.33;91.93;95559.75;5098147;28;20228;-83
2021/12/23 04:02:09;;;;;;;37.90;17.80;;;;;;;-5.22;90.85;95563.19;5100182;28;20204;-84
2021/12/23 04:04:39;;;;;;;33.77;16.20;;;;;;;-5.06;89.63;95569.78;5102015;28;20430;-85
2021/12/23 04:07:08;;;;;;;30.77;15.33;;;;;;;-5.00;88.17;95562.63;5095332;28;20196;-86
2021/12/23 04:09:36;;;;;;;28.03;14.27;;;;;;;-4.82;86.49;95571.50;5096986;28;20224;-84
2021/12/23 04:12:05;;;;;;;29.20;13.43;;;;;;;-4.78;85.46;95578.00;5115970;28;20236;-83
2021/12/23 04:14:33;;;;;;;28.17;14.10;;;;;;;-4.77;85.82;95578.81;5107515;28;20641;-82
2021/12/23 04:17:01;;;;;;;31.50;14.83;;;;;;;-4.73;85.45;95572.59;5097651;28;20204;-83
2021/12/23 04:19:31;;;;;;;33.10;16.20;;;;;;;-4.68;84.28;95580.75;5101633;28;20208;-83
2021/12/23 04:22:02;;;;;;;42.17;20.77;;;;;;;-4.66;83.43;95579.72;5095902;28;20205;-83
2021/12/23 04:24:32;;;;;;;47.80;22.67;;;;;;;-4.77;84.65;95561.88;5094679;28;20196;-83
2021/12/23 04:27:00;;;;;;;47.97;22.93;;;;;;;-4.68;84.41;95578.22;5099077;28;20228;-82
2021/12/23 04:29:29;;;;;;;55.50;24.33;;;;;;;-4.67;83.90;95578.09;5108270;28;20695;-82
2021/12/23 04:31:59;;;;;;;58.03;25.33;;;;;;;-4.60;83.18;95584.38;5105154;28;20208;-83
2021/12/23 04:34:27;;;;;;;56.87;26.97;;;;;;;-4.58;82.59;95584.25;5102383;28;20192;-83
2021/12/23 04:36:56;;;;;;;79.43;32.33;;;;;;;-4.57;82.74;95577.47;5099989;28;20200;-83
2021/12/23 04:39:25;;;;;;;97.47;35.67;;;;;;;-4.60;82.26;95581.84;5107142;28;20300;-82
2021/12/23 04:41:55;;;;;;;107.03;41.07;;;;;;;-4.62;82.08;95572.72;5107002;28;20287;-83
2021/12/23 04:44:23;;;;;;;82.23;34.30;;;;;;;-4.68;83.23;95589.16;5107099;28;20738;-83
2021/12/23 04:46:51;;;;;;;80.97;30.27;;;;;;;-4.79;83.27;95568.75;5093414;28;20223;-83
2021/12/23 04:49:22;;;;;;;64.27;28.07;;;;;;;-4.72;83.62;95579.31;5097264;28;20281;-82
2021/12/23 04:51:50;;;;;;;48.17;23.60;;;;;;;-4.66;83.08;95577.19;5093038;28;20207;-83
2021/12/23 04:54:19;;;;;;;47.17;20.43;;;;;;;-4.99;84.81;95573.56;5104841;28;20192;-83
2021/12/23 04:56:49;;;;;;;59.00;27.00;;;;;;;-5.68;86.80;95539.22;5100469;28;20196;-82
2021/12/23 04:59:17;;;;;;;68.57;28.40;;;;;;;-5.66;89.55;95589.75;5097630;28;20235;-82
2021/12/23 05:01:45;;;;;;;56.93;25.93;;;;;;;-5.74;92.92;95580.94;5108907;28;20200;-82
2021/12/23 05:04:14;;;;;;;60.00;27.57;;;;;;;-5.60;92.33;95587.66;5097560;28;20208;-82
2021/12/23 05:06:43;;;;;;;99.83;37.83;;;;;;;-5.52;91.69;95575.31;5099846;28;20205;-82
2021/12/23 05:09:10;;;;;;;139.90;50.57;;;;;;;-5.39;90.74;95586.28;5101477;28;20845;-83
2021/12/23 05:11:38;;;;;;;162.17;59.20;;;;;;;-5.36;91.08;95580.19;5100152;28;20227;-84
2021/12/23 05:14:08;;;;;;;155.00;60.83;;;;;;;-5.24;90.37;95585.28;5094025;28;20213;-85
2021/12/23 05:16:37;;;;;;;130.43;53.53;;;;;;;-5.22;89.46;95582.63;5100809;28;20204;-84
2021/12/23 05:19:05;;;;;;;114.00;49.23;;;;;;;-5.10;88.85;95581.84;5093074;28;20660;-83
2021/12/23 05:21:33;;;;;;;146.77;56.37;;;;;;;-5.02;87.78;95579.63;5093800;28;20242;-82
2021/12/23 05:24:02;;;;;;;135.73;53.53;;;;;;;-4.91;86.34;95574.69;5091414;28;20196;-84
2021/12/23 05:26:30;;;;;;;134.80;55.23;;;;;;;-4.89;86.57;95579.63;5094134;28;20312;-83
2021/12/23 05:28:59;;;;;;;113.83;47.33;;;;;;;-4.88;85.72;95587.16;5103152;28;20246;-82
2021/12/23 05:31:29;;;;;;;119.17;50.63;;;;;;;-4.97;86.18;95580.16;5100323;28;20287;-83
2021/12/23 05:33:59;;;;;;;120.80;49.90;;;;;;;-4.92;86.18;95579.81;5098576;28;20231;-82
2021/12/23 05:36:26;;;;;;;107.10;45.17;;;;;;;-4.96;85.95;95584.28;5094694;28;20389;-82
2021/12/23 05:38:56;;;;;;;104.30;40.33;;;;;;;-5.02;86.34;95578.84;5093753;28;20200;-83
2021/12/23 05:41:27;;;;;;;69.10;31.63;;;;;;;-4.95;86.17;95593.50;5100963;28;20216;-83
2021/12/23 05:43:55;;;;;;;66.37;29.97;;;;;;;-4.96;86.24;95586.03;5094156;28;20286;-82
2021/12/23 05:46:25;;;;;;;65.23;28.67;;;;;;;-4.98;85.89;95580.22;5092601;28;20258;-83
2021/12/23 05:48:55;;;;;;;67.13;30.93;;;;;;;-4.91;85.22;95589.06;5090626;28;20289;-85
2021/12/23 05:51:26;;;;;;;93.40;41.00;;;;;;;-4.92;85.60;95583.19;5100605;28;20204;-86
2021/12/23 05:53:54;;;;;;;94.33;40.87;;;;;;;-5.01;85.66;95585.50;5096483;28;20968;-85
2021/12/23 05:56:22;;;;;;;86.83;38.80;;;;;;;-4.97;85.89;95589.47;5097384;28;20200;-84
2021/12/23 05:58:51;;;;;;;88.27;37.77;;;;;;;-5.35;86.82;95585.19;5086415;28;20196;-86
2021/12/23 06:01:19;;;;;;;110.57;47.40;;;;;;;-5.78;88.86;95584.56;5097672;28;20220;-87
2021/12/23 06:03:46;;;;;;;114.73;49.60;;;;;;;-6.20;90.94;95574.59;5096048;28;20223;-86
2021/12/23 06:06:17;;;;;;;128.97;53.40;;;;;;;-6.19;95.98;95586.34;5101886;28;20193;-85
2021/12/23 06:08:46;;;;;;;123.20;51.13;;;;;;;-6.01;96.10;95586.94;5094708;28;20239;-85
2021/12/23 06:11:14;;;;;;;99.37;42.47;;;;;;;-5.87;95.86;95590.25;5099148;28;20287;-85
2021/12/23 06:13:42;;;;;;;95.43;38.57;;;;;;;-5.72;94.99;95587.63;5098859;28;20232;-84
2021/12/23 06:16:11;;;;;;;89.13;36.70;;;;;;;-5.54;93.32;95591.53;5098053;28;20196;-85
2021/12/23 06:18:38;;;;;;;284.80;96.00;;;;;;;-5.40;91.39;95599.03;5106862;28;21148;-86
2021/12/23 06:21:08;;;;;;;150.47;63.43;;;;;;;-5.33;90.34;95592.66;5103185;28;20211;-85
2021/12/23 06:23:46;;;;;;;158.33;61.00;;;;;;;-5.24;89.77;95600.47;5093363;28;20326;-85
2021/12/23 06:26:14;;;;;;;168.67;68.67;;;;;;;-5.24;88.89;95597.13;5098869;28;20228;-84
2021/12/23 06:28:42;;;;;;;178.10;74.77;;;;;;;-5.19;89.61;95603.53;5099214;28;20231;-88
2021/12/23 06:31:10;;;;;;;164.40;69.40;;;;;;;-5.09;88.40;95610.53;5105240;28;20211;-86
2021/12/23 06:33:38;;;;;;;148.37;59.23;;;;;;;-5.04;87.77;95608.50;5099004;28;20242;-84
2021/12/23 06:36:08;;;;;;;105.37;40.40;;;;;;;-5.00;87.28;95608.22;5091999;28;20648;-87
2021/12/23 06:38:36;;;;;;;98.50;41.73;;;;;;;-4.97;86.51;95597.06;5092456;28;20682;-87
2021/12/23 06:41:06;;;;;;;69.83;34.00;;;;;;;-4.92;85.91;95602.63;5092810;28;20214;-86
2021/12/23 06:43:34;;;;;;;57.10;25.33;;;;;;;-4.87;85.44;95593.00;5096409;28;20300;-87
2021/12/23 06:46:02;;;;;;;45.67;21.13;;;;;;;-4.91;85.23;95574.69;5091909;28;20209;-85
2021/12/23 06:48:32;;;;;;;46.70;21.60;;;;;;;-4.76;84.33;95593.91;5094255;28;20724;-84
2021/12/23 06:51:02;;;;;;;39.60;19.20;;;;;;;-4.81;84.75;95587.53;5098400;28;20205;-86
2021/12/23 06:53:31;;;;;;;39.43;19.40;;;;;;;-4.81;84.05;95579.91;5091441;28;20583;-85
2021/12/23 06:56:00;;;;;;;41.53;16.63;;;;;;;-4.69;83.45;95586.72;5095046;28;20225;-85
2021/12/23 06:58:33;;;;;;;27.93;15.33;;;;;;;-4.91;84.28;95596.66;5094616;28;20648;-84
2021/12/23 07:01:01;;;;;;;29.63;15.33;;;;;;;-5.27;86.61;95592.25;5093003;28;20273;-83
2021/12/23 07:04:02;;;;;;;33.33;15.77;;;;;;;-5.27;88.02;95582.13;5093760;28;20648;-85
2021/12/23 07:06:31;;;;;;;25.47;13.90;;;;;;;-5.08;87.56;95600.31;5092923;28;20222;-84
2021/12/23 07:09:00;;;;;;;30.00;14.70;;;;;;;-5.32;88.22;95600.19;5105351;28;20236;-86
2021/12/23 07:11:32;;;;;;;28.50;14.33;;;;;;;-5.55;89.78;95600.84;5100288;28;20204;-86
2021/12/23 07:14:01;;;;;;;29.10;15.33;;;;;;;-5.65;91.64;95573.66;5097953;28;20205;-84
2021/12/23 07:16:29;;;;;;;28.03;14.33;;;;;;;-5.46;92.09;95594.38;5098424;28;20200;-85
2021/12/23 07:19:05;;;;;;;29.40;14.80;;;;;;;-5.30;91.44;95593.28;5106742;28;20196;-87
2021/12/23 07:21:33;;;;;;;34.57;17.27;;;;;;;-5.04;89.60;95598.38;5093646;28;21548;-86
2021/12/23 07:24:02;;;;;;;39.37;16.77;;;;;;;-4.95;87.87;95602.84;5103393;28;20677;-86
2021/12/23 07:26:30;;;;;;;44.57;18.50;;;;;;;-4.80;87.30;95614.50;5099980;28;20224;-87
2021/12/23 07:29:01;;;;;;;47.53;22.23;;;;;;;-4.65;86.33;95604.13;5104721;28;20218;-85
2021/12/23 07:31:29;;;;;;;51.30;24.73;;;;;;;-4.56;85.66;95614.59;5095079;28;20204;-84
2021/12/23 07:33:58;;;;;;;63.93;28.53;;;;;;;-4.48;84.22;95614.88;5105215;27;20196;-87
2021/12/23 07:36:28;;;;;;;60.20;28.87;;;;;;;-4.42;84.03;95615.28;5104631;28;20283;-83
2021/12/23 07:38:57;;;;;;;64.93;29.53;;;;;;;-4.35;82.72;95610.59;5105102;27;20246;-86
2021/12/23 07:41:27;;;;;;;76.27;29.87;;;;;;;-4.37;82.51;95607.34;5091948;28;20271;-87
2021/12/23 07:44:03;;;;;;;60.60;29.07;;;;;;;-4.22;82.47;95621.53;5097856;28;20690;-86
2021/12/23 07:46:35;;;;;;;69.83;31.10;;;;;;;-4.16;82.93;95632.09;5103737;28;20638;-86
2021/12/23 07:49:05;;;;;;;67.27;30.10;;;;;;;-4.01;81.63;95631.00;5111610;27;20246;-87
2021/12/23 07:51:35;;;;;;;75.07;30.70;;;;;;;-4.03;80.79;95621.91;5104648;27;20270;-88
2021/12/23 07:54:02;;;;;;;74.23;31.50;;;;;;;-3.95;81.22;95622.16;5109676;27;20212;-87
2021/12/23 07:56:30;;;;;;;61.83;27.93;;;;;;;-3.82;79.41;95622.13;5106171;27;20732;-86
2021/12/23 07:58:58;;;;;;;63.40;28.63;;;;;;;-3.79;79.16;95614.31;5109077;27;20196;-87
2021/12/23 08:01:26;;;;;;;64.70;29.70;;;;;;;-3.65;78.17;95626.84;5101115;27;20835;-89
2021/12/23 08:03:57;;;;;;;66.60;29.17;;;;;;;-3.58;77.84;95628.84;5104103;27;20203;-90
2021/12/23 08:06:27;;;;;;;57.63;25.83;;;;;;;-3.57;77.63;95620.31;5108218;28;20235;-87
2021/12/23 08:08:56;;;;;;;62.03;29.90;;;;;;;-3.89;77.99;95621.75;5097205;28;20196;-88
2021/12/23 08:11:25;;;;;;;59.53;27.97;;;;;;;-4.25;79.93;95619.22;5095658;28;20207;-89
2021/12/23 08:13:54;;;;;;;64.80;28.13;;;;;;;-4.59;82.99;95603.72;5104173;28;20285;-88
2021/12/23 08:16:23;;;;;;;58.00;27.73;;;;;;;-4.34;90.07;95618.13;5098942;28;20250;-87
2021/12/23 08:18:51;;;;;;;60.43;28.00;;;;;;;-4.14;87.10;95616.75;5092189;28;20230;-88
2021/12/23 08:24:49;;;;;;;65.67;29.93;;;;;;;-3.85;81.69;95604.59;5092107;28;20207;-88
2021/12/23 08:27:26;;;;;;;64.70;30.27;;;;;;;-3.65;80.68;95622.59;5098880;28;20220;-88
2021/12/23 08:29:57;;;;;;;62.53;28.90;;;;;;;-3.53;79.38;95616.63;5093367;28;20239;-88
2021/12/23 08:32:30;;;;;;;60.10;28.37;;;;;;;-3.51;79.03;95614.78;5101362;28;20211;-86
2021/12/23 08:34:59;;;;;;;57.00;27.47;;;;;;;-3.42;79.80;95608.25;5095970;28;20192;-86
2021/12/23 08:37:28;;;;;;;64.63;27.83;;;;;;;-3.44;78.56;95589.78;5103918;27;20209;-87
2021/12/23 08:39:56;;;;;;;57.27;26.33;;;;;;;-3.19;77.86;95596.41;5102746;27;20224;-87
2021/12/23 08:42:35;;;;;;;56.13;26.57;;;;;;;-2.98;77.32;95608.38;5112217;28;20206;-88
2021/12/23 08:45:05;;;;;;;62.13;28.20;;;;;;;-2.86;75.47;95610.00;5101025;28;20200;-88
2021/12/23 08:47:34;;;;;;;57.37;27.57;;;;;;;-2.84;75.49;95609.09;5093865;28;20208;-84
2021/12/23 08:50:05;;;;;;;58.13;27.17;;;;;;;-2.84;75.33;95593.84;5100419;28;20311;-83
2021/12/23 08:52:36;;;;;;;60.80;27.17;;;;;;;-2.77;73.78;95595.81;5094949;28;20725;-76
2021/12/23 08:55:07;;;;;;;54.87;25.03;;;;;;;-2.79;73.39;95573.97;5091480;28;20254;-85
2021/12/23 08:57:38;;;;;;;49.63;24.97;;;;;;;-2.64;72.39;95586.34;5108620;28;20196;-84
2021/12/23 09:00:10;;;;;;;49.17;25.10;;;;;;;-2.92;71.96;95546.13;5089754;28;20216;-84
2021/12/23 09:02:40;;;;;;;50.20;24.60;;;;;;;-3.03;72.86;95571.53;5095029;28;20318;-84
2021/12/23 09:05:11;;;;;;;49.70;24.13;;;;;;;-3.21;74.61;95580.50;5112527;28;20235;-88
2021/12/23 09:07:41;;;;;;;48.03;24.00;;;;;;;-3.48;76.23;95551.06;5109011;28;20689;-90
2021/12/23 09:10:12;;;;;;;57.30;23.13;;;;;;;-3.28;75.95;95566.59;5107620;28;20213;-88
2021/12/23 09:12:40;;;;;;;47.73;22.53;;;;;;;-3.46;75.46;95517.94;5106684;28;20602;-85
2021/12/23 09:15:09;;;;;;;52.87;23.63;;;;;;;-3.04;75.25;95544.47;5114473;28;20200;-89
2021/12/23 09:17:38;;;;;;;68.07;37.70;;;;;;;-2.79;73.31;95546.00;5112057;28;20215;-89
2021/12/23 09:20:17;;;;;;;54.67;25.70;;;;;;;-2.71;71.77;95538.63;5113388;28;20216;-85
2021/12/23 09:22:48;;;;;;;50.20;24.37;;;;;;;-2.63;70.59;95546.47;5110481;28;20207;-83
2021/12/23 09:25:24;;;;;;;52.57;23.67;;;;;;;-2.48;70.84;95541.00;5105105;28;20205;-83
2021/12/23 09:28:01;;;;;;;45.90;22.97;;;;;;;-2.36;70.92;95535.00;5100653;28;20269;-84
2021/12/23 09:36:21;;;;;;;48.80;25.30;;;;;;;-1.96;69.03;95536.97;5090150;28;20652;-82
2021/12/23 09:38:53;;;;;;;51.80;25.00;;;;;;;-1.87;68.05;95531.16;5095377;28;20208;-83
2021/12/23 09:41:23;;;;;;;57.53;24.53;;;;;;;-1.83;67.65;95524.91;5092971;28;20197;-87
2021/12/23 09:43:52;;;;;;;48.57;23.67;;;;;;;-1.75;65.67;95530.22;5092839;28;20682;-88
2021/12/23 09:46:23;;;;;;;56.37;24.10;;;;;;;-1.88;66.06;95530.38;5105875;28;20230;-84
2021/12/23 09:48:51;;;;;;;49.67;23.73;;;;;;;-1.82;66.22;95514.59;5096323;28;20227;-79
2021/12/23 09:51:21;;;;;;;57.00;24.07;;;;;;;-1.88;66.87;95497.28;5103906;28;20286;-83
2021/12/23 09:53:57;;;;;;;53.27;25.03;;;;;;;-1.61;67.60;95501.09;5102827;28;20188;-83
2021/12/23 09:56:25;;;;;;;54.43;24.50;;;;;;;-0.83;67.86;95497.13;5087316;28;20196;-83
2021/12/23 09:58:56;;;;;;;47.90;24.40;;;;;;;0.50;61.62;95490.63;5091345;28;20205;-85
2021/12/23 10:01:24;;;;;;;56.20;24.07;;;;;;;2.03;55.11;95489.25;5091046;28;20189;-84
2021/12/23 10:03:51;;;;;;;52.33;24.60;;;;;;;2.65;51.86;95487.56;5090986;28;20196;-90
2021/12/23 10:06:20;;;;;;;48.00;23.73;;;;;;;3.08;50.32;95497.00;5106867;28;20219;-90
2021/12/23 10:08:47;;;;;;;53.17;25.20;;;;;;;3.61;48.65;95489.13;5107377;28;20195;-90
2021/12/23 10:11:25;;;;;;;49.10;24.47;;;;;;;5.21;45.83;95481.69;5102341;28;20226;-91
2021/12/23 10:31:07;;;;;;;53.87;24.33;;;;;;;14.30;27.70;95472.06;5055536;28;20245;-76
2021/12/23 10:33:48;;;;;;;48.37;26.27;;;;;;;14.66;26.94;95478.03;5086362;28;20201;-81
2021/12/23 10:39:00;;;;;;;46.90;25.33;;;;;;;13.43;27.89;95460.97;5083867;28;20224;-84
2021/12/23 10:41:37;;;;;;;46.67;25.17;;;;;;;13.37;27.66;95472.25;5086045;28;20194;-84
2021/12/23 10:44:06;;;;;;;41.93;24.07;;;;;;;12.44;28.53;95466.06;5092731;28;20203;-87
2021/12/23 10:46:36;;;;;;;43.80;24.90;;;;;;;12.63;28.70;95460.97;5091395;28;20200;-87
2021/12/23 10:49:11;;;;;;;53.00;25.27;;;;;;;12.83;28.03;95456.41;5089529;28;20225;-85
2021/12/23 10:51:58;;;;;;;53.67;27.90;;;;;;;12.67;28.20;95457.72;5094679;28;20230;-87
2021/12/23 11:00:18;;;;;;;52.70;28.33;;;;;;;14.40;26.46;95446.25;5091874;28;20203;-86
2021/12/23 11:03:08;;;;;;;51.97;28.57;;;;;;;15.04;25.77;95437.63;5095775;28;20192;-88
2021/12/23 11:05:40;;;;;;;43.00;27.40;;;;;;;14.46;25.79;95432.28;5092876;28;20295;-80
2021/12/23 11:08:19;;;;;;;49.67;26.53;;;;;;;13.73;27.05;95421.09;5087364;28;20203;-84
2021/12/23 11:36:33;;;;;;;46.70;25.53;;;;;;;14.63;26.26;95397.38;5095268;28;20341;-86
2021/12/23 11:39:23;;;;;;;45.23;25.47;;;;;;;14.81;25.83;95387.84;5098629;28;20196;-85
2021/12/23 11:42:00;;;;;;;40.70;26.17;;;;;;;14.59;25.55;95385.78;5094656;28;20279;-88
2021/12/23 11:44:30;;;;;;;41.60;24.33;;;;;;;14.62;25.83;95372.25;5096189;28;20647;-89
2021/12/23 11:47:06;;;;;;;44.20;26.07;;;;;;;14.91;25.41;95373.22;5096647;28;20211;-87
2021/12/23 11:49:39;;;;;;;43.37;25.93;;;;;;;14.85;25.57;95376.72;5105447;28;20214;-88
2021/12/23 11:52:09;;;;;;;51.40;28.33;;;;;;;14.66;25.43;95370.78;5091360;28;20231;-86
2021/12/23 11:54:39;;;;;;;47.13;26.87;;;;;;;14.04;26.30;95363.41;5096754;28;20261;-86
2021/12/23 11:57:10;;;;;;;53.03;27.93;;;;;;;13.86;26.59;95351.19;5093736;28;20216;-85
2021/12/23 12:00:04;;;;;;;46.47;27.73;;;;;;;13.81;26.55;95358.06;5087725;28;20209;-88
2021/12/23 12:02:33;;;;;;;50.33;27.03;;;;;;;13.92;25.96;95360.75;5103773;28;20228;-88
2021/12/23 12:05:06;;;;;;;52.63;26.53;;;;;;;13.51;26.76;95348.38;5108429;28;20200;-88
2021/12/23 12:07:40;;;;;;;47.50;27.03;;;;;;;13.67;26.39;95364.47;5107966;28;20224;-87
2021/12/23 12:10:12;;;;;;;44.93;26.80;;;;;;;13.95;26.59;95362.13;5112220;28;20315;-85
2021/12/23 12:12:58;;;;;;;45.00;25.97;;;;;;;14.15;26.32;95347.75;5100191;28;20204;-85
2021/12/23 12:15:47;;;;;;;52.87;28.27;;;;;;;13.79;26.68;95354.91;5098895;28;20219;-85
2021/12/23 12:18:19;;;;;;;48.30;27.40;;;;;;;13.24;27.00;95349.69;5087215;28;20201;-77
2021/12/23 12:20:52;;;;;;;47.43;26.63;;;;;;;12.84;27.46;95338.03;5109870;28;20203;-84
2021/12/23 12:23:23;;;;;;;44.97;26.60;;;;;;;12.73;27.87;95338.69;5087407;28;20192;-85
2021/12/23 12:26:04;;;;;;;41.13;25.83;;;;;;;12.71;27.95;95340.72;5095409;28;20561;-86
2021/12/23 12:28:41;;;;;;;47.77;26.23;;;;;;;12.80;27.53;95339.44;5099479;28;20236;-85
2021/12/23 12:31:11;;;;;;;50.20;26.13;;;;;;;12.99;27.59;95334.03;5107545;28;20268;-84
2021/12/23 12:33:42;;;;;;;46.57;25.93;;;;;;;13.14;27.42;95322.47;5096751;28;20201;-87
2021/12/23 12:36:14;;;;;;;45.93;25.33;;;;;;;13.23;27.28;95324.59;5097177;28;20195;-86
2021/12/23 12:38:46;;;;;;;46.27;24.17;;;;;;;13.28;27.46;95326.53;5102222;28;20667;-83
2021/12/23 12:41:18;;;;;;;42.40;23.40;;;;;;;13.31;27.94;95326.91;5089553;28;20204;-78